createdAt,value
2022-10-11T00:00:43.259Z,99470.20
2022-10-11T00:03:30.711Z,99470.40
2022-10-11T00:05:58.415Z,99470.00
2022-10-11T00:08:26.133Z,99468.40
2022-10-11T00:10:59.320Z,99470.80
2022-10-11T00:13:27.338Z,99470.40
2022-10-11T00:15:55.349Z,99475.60
2022-10-11T00:18:23.605Z,99474.80
2022-10-11T00:20:51.341Z,99475.00
2022-10-11T00:23:19.056Z,99477.00
2022-10-11T00:26:00.517Z,99472.00
2022-10-11T00:28:28.467Z,99468.00
2022-10-11T00:30:56.562Z,99474.80
2022-10-11T00:33:24.274Z,99479.00
2022-10-11T00:35:52.014Z,99478.00
2022-10-11T00:38:19.948Z,99481.40
2022-10-11T00:40:47.646Z,99480.60
2022-10-11T00:43:18.681Z,99477.20
2022-10-11T00:45:58.602Z,99476.60
2022-10-11T00:48:50.952Z,99470.20
2022-10-11T00:51:49.741Z,99475.80
2022-10-11T00:54:20.961Z,99475.20
2022-10-11T00:56:51.953Z,99470.60
2022-10-11T00:59:25.052Z,99476.60
2022-10-11T01:01:52.790Z,99478.80
2022-10-11T01:04:20.646Z,99475.40
2022-10-11T01:06:49.734Z,99476.20
2022-10-11T01:09:18.005Z,99471.40
2022-10-11T01:11:46.124Z,99472.80
2022-10-11T01:14:57.361Z,99473.80
2022-10-11T01:17:34.463Z,99478.20
2022-10-11T01:20:27.789Z,99473.40
2022-10-11T01:23:17.283Z,99477.20
2022-10-11T01:26:27.731Z,99468.20
2022-10-11T01:29:26.540Z,99464.20
2022-10-11T01:31:59.237Z,99465.60
2022-10-11T01:34:38.683Z,99473.20
2022-10-11T01:37:25.035Z,99470.60
2022-10-11T01:40:00.132Z,99465.40
2022-10-11T01:42:28.674Z,99470.60
2022-10-11T01:44:56.416Z,99469.60
2022-10-11T01:47:24.533Z,99474.20
2022-10-11T01:49:57.236Z,99466.60
2022-10-11T01:52:27.244Z,99474.60
2022-10-11T01:55:16.950Z,99466.40
2022-10-11T01:58:44.980Z,99469.80
2022-10-11T02:01:40.832Z,99471.80
2022-10-11T02:04:20.323Z,99463.60
2022-10-11T02:07:00.224Z,99468.80
2022-10-11T02:09:36.431Z,99463.40
2022-10-11T02:12:07.918Z,99461.40
2022-10-11T02:14:39.949Z,99461.40
2022-10-11T02:17:12.268Z,99456.80
2022-10-11T02:19:47.658Z,99460.20
2022-10-11T02:22:30.960Z,99464.40
2022-10-11T02:25:00.472Z,99464.60
2022-10-11T02:27:30.854Z,99459.60
2022-10-11T02:30:00.955Z,99460.80
2022-10-11T02:32:28.857Z,99463.20
2022-10-11T02:34:59.067Z,99460.00
2022-10-11T02:37:41.848Z,99466.60
2022-10-11T02:40:29.282Z,99466.20
2022-10-11T02:43:17.659Z,99463.40
2022-10-11T02:45:50.120Z,99473.20
2022-10-11T02:48:18.051Z,99478.80
2022-10-11T02:50:45.926Z,99474.20
2022-10-11T02:53:13.690Z,99476.20
2022-10-11T02:55:41.446Z,99474.40
2022-10-11T02:58:09.219Z,99475.20
2022-10-11T03:00:36.970Z,99480.80
2022-10-11T03:03:04.701Z,99476.00
2022-10-11T03:05:37.177Z,99477.60
2022-10-11T03:08:04.978Z,99478.20
2022-10-11T03:10:33.927Z,99482.40
2022-10-11T03:13:01.964Z,99485.00
2022-10-11T03:15:29.810Z,99482.40
2022-10-11T03:17:57.674Z,99488.60
2022-10-11T03:20:25.851Z,99486.40
2022-10-11T03:22:53.579Z,99487.00
2022-10-11T03:25:21.390Z,99489.80
2022-10-11T03:27:49.139Z,99492.80
2022-10-11T03:30:18.524Z,99492.80
2022-10-11T03:32:46.417Z,99497.60
2022-10-11T03:35:14.687Z,99503.60
2022-10-11T03:37:42.408Z,99505.40
2022-10-11T03:40:11.546Z,99510.20
2022-10-11T03:42:39.829Z,99516.20
2022-10-11T03:45:09.073Z,99512.40
2022-10-11T03:47:40.173Z,99518.00
2022-10-11T03:50:09.357Z,99518.00
2022-10-11T03:52:37.078Z,99527.00
2022-10-11T03:55:06.521Z,99526.80
2022-10-11T03:57:34.290Z,99528.40
2022-10-11T04:00:02.073Z,99529.60
2022-10-11T04:02:35.799Z,99531.00
2022-10-11T04:05:07.714Z,99529.60
2022-10-11T04:07:35.457Z,99534.00
2022-10-11T04:10:03.351Z,99534.40
2022-10-11T04:12:31.110Z,99537.80
2022-10-11T04:14:58.879Z,99536.60
2022-10-11T04:17:26.669Z,99531.80
2022-10-11T04:19:54.400Z,99533.20
2022-10-11T04:22:22.086Z,99536.20
2022-10-11T04:24:49.841Z,99542.80
2022-10-11T04:27:17.690Z,99550.40
2022-10-11T04:29:45.459Z,99559.40
2022-10-11T04:32:13.219Z,99573.00
2022-10-11T04:34:41.119Z,99572.00
2022-10-11T04:37:08.952Z,99567.00
2022-10-11T04:39:37.212Z,99567.80
2022-10-11T04:42:05.421Z,99568.00
2022-10-11T04:44:33.165Z,99574.20
2022-10-11T04:47:01.352Z,99574.00
2022-10-11T04:49:29.042Z,99575.40
2022-10-11T04:51:56.986Z,99580.80
2022-10-11T04:54:25.237Z,99572.40
2022-10-11T04:56:53.034Z,99574.60
2022-10-11T04:59:20.770Z,99576.40
2022-10-11T05:01:48.594Z,99579.20
2022-10-11T05:04:16.380Z,99571.00
2022-10-11T05:06:44.086Z,99579.40
2022-10-11T05:09:11.804Z,99580.80
2022-10-11T05:11:39.549Z,99585.60
2022-10-11T05:14:07.343Z,99590.20
2022-10-11T05:16:35.069Z,99596.20
2022-10-11T05:19:02.992Z,99603.80
2022-10-11T05:21:31.036Z,99601.00
2022-10-11T05:23:59.285Z,99600.60
2022-10-11T05:26:28.176Z,99603.00
2022-10-11T05:28:56.027Z,99605.80
2022-10-11T05:31:23.961Z,99609.40
2022-10-11T05:33:51.817Z,99610.20
2022-10-11T05:36:19.635Z,99613.40
2022-10-11T05:38:47.365Z,99611.60
2022-10-11T05:41:15.605Z,99616.20
2022-10-11T05:43:44.780Z,99626.80
2022-10-11T05:46:12.617Z,99629.40
2022-10-11T05:48:40.497Z,99636.80
2022-10-11T05:51:09.973Z,99644.60
2022-10-11T05:53:38.745Z,99641.80
2022-10-11T05:56:21.390Z,99644.40
2022-10-11T05:58:49.427Z,99645.20
2022-10-11T06:01:25.724Z,99653.80
2022-10-11T06:03:53.659Z,99652.40
2022-10-11T06:06:21.534Z,99660.00
2022-10-11T06:08:49.418Z,99667.20
2022-10-11T06:11:20.661Z,99670.20
2022-10-11T06:13:49.018Z,99675.60
2022-10-11T06:16:16.778Z,99681.40
2022-10-11T06:18:44.643Z,99680.40
2022-10-11T06:21:13.384Z,99687.60
2022-10-11T06:23:41.227Z,99688.40
2022-10-11T06:26:10.361Z,99696.80
2022-10-11T06:28:38.410Z,99697.80
2022-10-11T06:31:06.993Z,99702.60
2022-10-11T06:33:35.125Z,99702.80
2022-10-11T06:36:07.609Z,99707.00
2022-10-11T06:38:35.741Z,99711.40
2022-10-11T06:41:30.464Z,99713.60
2022-10-11T06:43:58.178Z,99717.80
2022-10-11T06:46:27.530Z,99720.00
2022-10-11T06:48:56.758Z,99718.80
2022-10-11T06:51:24.954Z,99729.00
2022-10-11T06:53:56.822Z,99735.60
2022-10-11T06:56:26.364Z,99730.80
2022-10-11T06:58:54.908Z,99738.20
2022-10-11T07:01:24.076Z,99743.60
2022-10-11T07:03:53.954Z,99743.60
2022-10-11T07:06:27.038Z,99750.20
2022-10-11T07:08:54.913Z,99752.20
2022-10-11T07:11:26.323Z,99752.80
2022-10-11T07:14:04.497Z,99760.20
2022-10-11T07:16:32.230Z,99763.20
2022-10-11T07:19:01.796Z,99761.60
2022-10-11T07:21:30.672Z,99774.60
2022-10-11T07:23:58.942Z,99774.40
2022-10-11T07:26:28.134Z,99776.00
2022-10-11T07:28:56.023Z,99780.80
2022-10-11T07:31:25.368Z,99789.20
2022-10-11T07:33:53.500Z,99793.80
2022-10-11T07:36:23.503Z,99793.00
2022-10-11T07:38:51.628Z,99794.00
2022-10-11T07:41:19.451Z,99802.00
2022-10-11T07:43:51.250Z,99808.20
2022-10-11T07:46:19.171Z,99817.00
2022-10-11T07:48:47.101Z,99818.60
2022-10-11T07:51:18.347Z,99821.80
2022-10-11T07:53:48.512Z,99821.60
2022-10-11T07:56:19.610Z,99825.00
2022-10-11T07:58:55.871Z,99829.40
2022-10-11T08:01:24.495Z,99824.80
2022-10-11T08:03:53.209Z,99833.80
2022-10-11T08:06:23.209Z,99830.80
2022-10-11T08:08:51.009Z,99835.80
2022-10-11T08:11:30.789Z,99832.80
2022-10-11T08:13:59.355Z,99832.00
2022-10-11T08:16:27.289Z,99840.20
2022-10-11T08:18:57.168Z,99840.20
2022-10-11T08:21:26.966Z,99844.80
2022-10-11T08:23:54.913Z,99842.20
2022-10-11T08:26:22.872Z,99844.40
2022-10-11T08:28:50.813Z,99845.80
2022-10-11T08:31:18.807Z,99854.20
2022-10-11T08:33:46.671Z,99854.60
2022-10-11T08:36:14.479Z,99863.20
2022-10-11T08:38:42.509Z,99856.60
2022-10-11T08:42:04.716Z,99865.60
2022-10-11T08:45:05.573Z,99874.60
2022-10-11T08:47:30.988Z,99867.20
2022-10-11T08:49:59.305Z,99874.80
2022-10-11T08:52:44.034Z,99868.60
2022-10-11T08:55:38.066Z,99870.80
2022-10-11T08:58:05.981Z,99868.00
2022-10-11T09:00:34.125Z,99868.00
2022-10-11T09:03:42.001Z,99865.40
2022-10-11T09:06:40.440Z,99875.80
2022-10-11T09:09:26.280Z,99868.60
2022-10-11T09:12:36.075Z,99874.40
2022-10-11T09:15:17.257Z,99878.60
2022-10-11T09:18:45.723Z,99884.80
2022-10-11T09:21:47.808Z,99892.20
2022-10-11T09:24:34.903Z,99891.40
2022-10-11T09:30:28.214Z,99899.60
2022-10-11T09:33:12.859Z,99900.60
2022-10-11T09:35:45.795Z,99900.80
2022-10-11T09:38:24.949Z,99896.20
2022-10-11T09:41:13.450Z,99897.60
2022-10-11T09:43:45.125Z,99893.20
2022-10-11T09:46:37.433Z,99892.60
2022-10-11T09:49:10.125Z,99900.00
2022-10-11T09:51:37.993Z,99898.80
2022-10-11T09:54:06.604Z,99901.00
2022-10-11T09:56:35.143Z,99903.20
2022-10-11T09:59:28.118Z,99897.00
2022-10-11T10:02:14.567Z,99904.20
2022-10-11T10:05:06.943Z,99902.00
2022-10-11T10:07:35.727Z,99908.80
2022-10-11T10:10:34.220Z,99908.00
2022-10-11T10:13:04.135Z,99913.60
2022-10-11T10:15:36.544Z,99911.60
2022-10-11T10:18:06.565Z,99912.60
2022-10-11T10:24:04.183Z,99917.00
2022-10-11T10:26:32.401Z,99915.20
2022-10-11T10:29:09.291Z,99912.40
2022-10-11T10:34:50.347Z,99910.60
2022-10-11T10:37:29.478Z,99911.00
2022-10-11T10:40:05.424Z,99915.80
2022-10-11T10:42:33.121Z,99920.00
2022-10-11T10:45:00.921Z,99918.20
2022-10-11T10:48:05.901Z,99923.40
2022-10-11T10:50:56.190Z,99924.40
2022-10-11T10:53:27.941Z,99926.60
2022-10-11T10:56:19.492Z,99930.20
2022-10-11T10:59:25.236Z,99926.60
2022-10-11T11:02:21.450Z,99932.00
2022-10-11T11:05:00.445Z,99929.20
2022-10-11T11:08:09.003Z,99929.80
2022-10-11T11:10:47.473Z,99934.60
2022-10-11T11:13:42.375Z,99939.20
2022-10-11T11:16:45.364Z,99942.00
2022-10-11T11:19:53.644Z,99936.60
2022-10-11T11:22:44.833Z,99935.40
2022-10-11T11:25:34.405Z,99936.60
2022-10-11T11:28:43.515Z,99940.00
2022-10-11T11:31:37.422Z,99936.20
2022-10-11T11:34:22.284Z,99940.20
2022-10-11T11:36:58.705Z,99942.40
2022-10-11T11:39:51.858Z,99943.40
2022-10-11T11:42:40.669Z,99945.00
2022-10-11T11:45:50.208Z,99949.60
2022-10-11T11:48:26.641Z,99942.20
2022-10-11T11:51:15.840Z,99945.40
2022-10-11T11:53:55.856Z,99949.60
2022-10-11T11:56:31.649Z,99944.60
2022-10-11T11:59:41.090Z,99941.60
2022-10-11T12:02:44.983Z,99952.80
2022-10-11T12:05:16.031Z,99950.80
2022-10-11T12:08:06.196Z,99946.40
2022-10-11T12:10:39.755Z,99953.40
2022-10-11T12:13:34.885Z,99952.20
2022-10-11T12:16:11.346Z,99953.60
2022-10-11T12:18:57.879Z,99955.20
2022-10-11T12:21:33.492Z,99957.00
2022-10-11T12:24:23.536Z,99956.20
2022-10-11T12:26:58.751Z,99954.20
2022-10-11T12:29:49.996Z,99947.80
2022-10-11T12:32:28.299Z,99954.00
2022-10-11T12:35:53.634Z,99949.60
2022-10-11T12:38:34.102Z,99951.00
2022-10-11T12:41:10.892Z,99952.20
2022-10-11T12:43:47.848Z,99956.80
2022-10-11T12:46:33.493Z,99960.80
2022-10-11T12:49:41.776Z,99956.80
2022-10-11T12:52:37.464Z,99963.40
2022-10-11T12:55:13.811Z,99968.00
2022-10-11T12:58:09.864Z,99966.80
2022-10-11T13:00:40.789Z,99969.00
2022-10-11T13:03:35.570Z,99968.60
2022-10-11T13:06:25.143Z,99968.60
2022-10-11T13:09:02.947Z,99971.40
2022-10-11T13:11:34.032Z,99973.80
2022-10-11T13:14:25.242Z,99968.00
2022-10-11T13:17:08.265Z,99973.40
2022-10-11T13:19:37.689Z,99975.40
2022-10-11T13:22:18.228Z,99972.80
2022-10-11T13:24:46.863Z,99978.00
2022-10-11T13:27:21.636Z,99978.00
2022-10-11T13:29:50.440Z,99976.00
2022-10-11T13:32:24.539Z,99981.00
2022-10-11T13:34:58.664Z,99976.60
2022-10-11T13:37:27.426Z,99976.40
2022-10-11T13:39:56.320Z,99972.40
2022-10-11T13:42:32.498Z,99973.80
2022-10-11T13:45:00.629Z,99977.00
2022-10-11T13:47:30.145Z,99979.00
2022-10-11T13:50:11.020Z,99979.00
2022-10-11T13:53:09.738Z,99980.20
2022-10-11T13:55:55.688Z,99988.80
2022-10-11T13:58:41.536Z,99995.20
2022-10-11T14:01:27.137Z,99989.00
2022-10-11T14:04:05.477Z,99985.20
2022-10-11T14:07:02.801Z,99991.80
2022-10-11T14:09:37.092Z,99995.20
2022-10-11T14:12:44.131Z,99999.60
2022-10-11T14:16:07.707Z,99993.40
2022-10-11T14:18:44.588Z,99995.80
2022-10-11T14:21:30.466Z,99995.80
2022-10-11T14:24:05.215Z,99995.20
2022-10-11T14:26:44.431Z,99996.00
2022-10-11T14:29:26.424Z,99993.40
2022-10-11T14:31:59.823Z,99994.00
2022-10-11T14:34:27.738Z,99998.80
2022-10-11T14:36:55.558Z,99996.60
2022-10-11T14:39:25.467Z,99998.40
2022-10-11T14:41:53.710Z,100000.80
2022-10-11T14:44:22.276Z,99998.60
2022-10-11T14:46:54.037Z,100005.20
2022-10-11T14:49:25.270Z,100003.60
2022-10-11T14:51:54.946Z,100000.20
2022-10-11T14:54:25.171Z,100006.20
2022-10-11T14:56:54.476Z,100010.40
2022-10-11T14:59:25.970Z,100016.80
2022-10-11T15:01:54.391Z,100013.80
2022-10-11T15:04:23.215Z,100020.20
2022-10-11T15:06:52.215Z,100015.60
2022-10-11T15:09:22.968Z,100020.80
2022-10-11T15:11:52.850Z,100018.20
2022-10-11T15:14:22.514Z,100019.80
2022-10-11T15:16:50.362Z,100022.40
2022-10-11T15:19:20.872Z,100018.60
2022-10-11T15:21:48.797Z,100021.40
2022-10-11T15:24:16.869Z,100026.00
2022-10-11T15:26:45.980Z,100021.60
2022-10-11T15:29:13.877Z,100031.20
2022-10-11T15:31:41.690Z,100026.20
2022-10-11T15:34:09.456Z,100023.80
2022-10-11T15:36:37.182Z,100024.20
2022-10-11T15:39:34.885Z,100031.40
2022-10-11T15:42:02.664Z,100032.40
2022-10-11T15:44:30.381Z,100040.40
2022-10-11T15:46:58.155Z,100043.00
2022-10-11T15:49:25.953Z,100044.40
2022-10-11T15:51:53.805Z,100052.60
2022-10-11T15:54:21.540Z,100052.20
2022-10-11T15:56:49.451Z,100055.40
2022-10-11T15:59:17.302Z,100052.60
2022-10-11T16:01:45.425Z,100054.20
2022-10-11T16:04:13.352Z,100057.20
2022-10-11T16:06:41.639Z,100058.00
2022-10-11T16:09:09.901Z,100057.60
2022-10-11T16:11:37.680Z,100053.60
2022-10-11T16:14:06.158Z,100063.80
2022-10-11T16:16:33.896Z,100067.80
2022-10-11T16:19:01.607Z,100071.40
2022-10-11T16:21:29.465Z,100072.40
2022-10-11T16:23:57.506Z,100068.60
2022-10-11T16:26:25.354Z,100071.60
2022-10-11T16:28:53.207Z,100075.20
2022-10-11T16:31:21.320Z,100079.00
2022-10-11T16:33:50.456Z,100084.20
2022-10-11T16:36:36.766Z,100083.00
2022-10-11T16:39:12.394Z,100081.60
2022-10-11T16:41:40.414Z,100086.00
2022-10-11T16:44:10.258Z,100087.80
2022-10-11T16:46:38.099Z,100091.60
2022-10-11T16:49:06.486Z,100090.80
2022-10-11T16:51:34.247Z,100095.00
2022-10-11T16:54:02.243Z,100096.00
2022-10-11T16:56:30.488Z,100094.20
2022-10-11T16:58:58.756Z,100097.60
2022-10-11T17:01:26.866Z,100101.00
2022-10-11T17:03:55.814Z,100101.60
2022-10-11T17:06:24.004Z,100107.00
2022-10-11T17:08:52.511Z,100100.20
2022-10-11T17:11:22.424Z,100106.80
2022-10-11T17:13:51.606Z,100106.60
2022-10-11T17:16:20.517Z,100107.20
2022-10-11T17:22:15.503Z,100109.20
2022-10-11T17:24:44.293Z,100111.00
2022-10-11T17:27:12.158Z,100117.20
2022-10-11T17:29:46.070Z,100114.00
2022-10-11T17:32:15.092Z,100116.60
2022-10-11T17:34:42.979Z,100117.20
2022-10-11T17:37:12.646Z,100121.60
2022-10-11T17:39:40.805Z,100120.00
2022-10-11T17:42:09.201Z,100117.80
2022-10-11T17:44:37.312Z,100117.80
2022-10-11T17:47:06.043Z,100124.20
2022-10-11T17:49:34.114Z,100120.80
2022-10-11T17:52:01.979Z,100119.20
2022-10-11T17:54:29.722Z,100115.60
2022-10-11T17:56:58.534Z,100124.80
2022-10-11T17:59:31.008Z,100120.00
2022-10-11T18:01:59.075Z,100119.80
2022-10-11T18:04:29.707Z,100117.00
2022-10-11T18:06:57.814Z,100119.40
2022-10-11T18:09:25.637Z,100124.40
2022-10-11T18:11:53.429Z,100119.60
2022-10-11T18:14:21.326Z,100120.20
2022-10-11T18:16:49.156Z,100124.20
2022-10-11T18:19:17.106Z,100119.60
2022-10-11T18:21:44.933Z,100122.20
2022-10-11T18:24:15.432Z,100112.60
2022-10-11T18:26:45.808Z,100121.60
2022-10-11T18:29:15.245Z,100120.80
2022-10-11T18:31:43.245Z,100123.60
2022-10-11T18:34:11.262Z,100122.80
2022-10-11T18:36:39.559Z,100126.00
2022-10-11T18:39:09.559Z,100129.60
2022-10-11T18:41:38.812Z,100130.40
2022-10-11T18:44:08.697Z,100134.00
2022-10-11T18:46:36.730Z,100131.40
2022-10-11T18:49:04.711Z,100129.20
2022-10-11T18:51:40.141Z,100137.80
2022-10-11T18:54:09.389Z,100133.60
2022-10-11T18:56:37.691Z,100137.40
2022-10-11T18:59:06.489Z,100136.00
2022-10-11T19:01:40.501Z,100136.40
2022-10-11T19:04:09.797Z,100135.80
2022-10-11T19:06:40.850Z,100136.00
2022-10-11T19:09:15.101Z,100130.80
2022-10-11T19:11:42.984Z,100130.20
2022-10-11T19:14:14.856Z,100129.00
2022-10-11T19:16:46.391Z,100132.80
2022-10-11T19:19:14.474Z,100131.00
2022-10-11T19:21:42.371Z,100136.60
2022-10-11T19:24:10.166Z,100136.60
2022-10-11T19:26:39.989Z,100138.00
2022-10-11T19:29:15.027Z,100134.80
2022-10-11T19:31:45.836Z,100140.20
2022-10-11T19:34:14.126Z,100144.20
2022-10-11T19:36:42.899Z,100146.00
2022-10-11T19:39:13.747Z,100147.80
2022-10-11T19:41:41.883Z,100148.20
2022-10-11T19:44:10.815Z,100144.20
2022-10-11T19:46:51.079Z,100145.80
2022-10-11T19:49:25.124Z,100144.00
2022-10-11T19:51:55.473Z,100145.60
2022-10-11T19:54:23.787Z,100148.60
2022-10-11T19:56:51.636Z,100153.20
2022-10-11T19:59:19.843Z,100149.80
2022-10-11T20:01:52.453Z,100152.00
2022-10-11T20:07:09.365Z,100156.60
2022-10-11T20:09:37.397Z,100152.60
2022-10-11T20:12:07.446Z,100157.40
2022-10-11T20:14:35.312Z,100159.20
2022-10-11T20:17:04.273Z,100159.20
2022-10-11T20:19:34.743Z,100159.80
2022-10-11T20:22:02.571Z,100158.60
2022-10-11T20:24:33.645Z,100161.40
2022-10-11T20:27:04.016Z,100160.60
2022-10-11T20:29:31.750Z,100159.80
2022-10-11T20:31:59.874Z,100159.80
2022-10-11T20:34:27.991Z,100153.60
2022-10-11T20:36:56.286Z,100156.80
2022-10-11T20:39:24.080Z,100158.20
2022-10-11T20:41:53.421Z,100155.40
2022-10-11T20:44:21.363Z,100159.60
2022-10-11T20:46:49.126Z,100160.80
2022-10-11T20:49:20.161Z,100156.00
2022-10-11T20:51:48.847Z,100165.80
2022-10-11T20:54:16.630Z,100164.60
2022-10-11T20:56:44.879Z,100163.00
2022-10-11T20:59:12.682Z,100164.80
2022-10-11T21:01:41.010Z,100170.60
2022-10-11T21:04:17.488Z,100167.60
2022-10-11T21:06:45.810Z,100164.00
2022-10-11T21:09:15.645Z,100168.40
2022-10-11T21:11:45.007Z,100173.20
2022-10-11T21:14:12.940Z,100169.00
2022-10-11T21:16:40.816Z,100170.00
2022-10-11T21:19:12.983Z,100168.00
2022-10-11T21:21:40.951Z,100163.80
2022-10-11T21:24:08.700Z,100166.80
2022-10-11T21:26:36.803Z,100164.60
2022-10-11T21:29:04.652Z,100170.20
2022-10-11T21:31:34.299Z,100161.60
2022-10-11T21:34:05.218Z,100166.00
2022-10-11T21:36:33.278Z,100163.60
2022-10-11T21:39:01.141Z,100167.60
2022-10-11T21:41:30.225Z,100165.20
2022-10-11T21:43:58.543Z,100171.20
2022-10-11T21:47:04.917Z,100172.60
2022-10-11T21:49:18.722Z,100169.60
2022-10-11T21:51:46.795Z,100172.80
2022-10-11T21:54:14.661Z,100170.00
2022-10-11T21:56:42.512Z,100172.60
2022-10-11T21:59:12.529Z,100174.80
2022-10-11T22:01:42.044Z,100174.00
2022-10-11T22:04:10.934Z,100179.40
2022-10-11T22:06:39.461Z,100177.20
2022-10-11T22:09:07.613Z,100177.40
2022-10-11T22:11:36.098Z,100180.80
2022-10-11T22:14:03.899Z,100179.20
2022-10-11T22:16:33.769Z,100175.60
2022-10-11T22:19:02.015Z,100174.80
2022-10-11T22:21:29.837Z,100171.60
2022-10-11T22:23:57.585Z,100177.60
2022-10-11T22:26:29.959Z,100176.80
2022-10-11T22:28:59.335Z,100173.00
2022-10-11T22:31:27.489Z,100177.00
2022-10-11T22:34:00.141Z,100182.40
2022-10-11T22:36:30.652Z,100179.80
2022-10-11T22:38:59.224Z,100180.20
2022-10-11T22:41:27.018Z,100180.80
2022-10-11T22:43:54.913Z,100177.80
2022-10-11T22:46:22.909Z,100178.80
2022-10-11T22:48:50.581Z,100182.40
2022-10-11T22:51:19.003Z,100186.00
2022-10-11T22:53:46.754Z,100185.80
2022-10-11T22:56:14.573Z,100184.00
2022-10-11T22:58:42.282Z,100183.60
2022-10-11T23:01:11.903Z,100189.20
2022-10-11T23:03:39.888Z,100186.00
2022-10-11T23:06:08.100Z,100185.80
2022-10-11T23:08:35.824Z,100184.60
2022-10-11T23:11:07.236Z,100185.40
2022-10-11T23:13:35.463Z,100178.40
2022-10-11T23:16:08.765Z,100179.00
2022-10-11T23:18:36.883Z,100185.00
2022-10-11T23:21:05.317Z,100184.80
2022-10-11T23:23:33.276Z,100187.00
2022-10-11T23:26:21.706Z,100186.20
2022-10-11T23:28:54.330Z,100183.40
2022-10-11T23:31:22.256Z,100182.20
2022-10-11T23:33:50.069Z,100180.40
2022-10-11T23:36:20.802Z,100181.40
2022-10-11T23:38:56.720Z,100182.00
2022-10-11T23:41:29.079Z,100180.40
2022-10-11T23:43:57.429Z,100187.00
2022-10-11T23:46:25.325Z,100183.00
2022-10-11T23:48:53.298Z,100186.20
2022-10-11T23:51:21.362Z,100191.60
2022-10-11T23:53:49.163Z,100191.20
2022-10-11T23:56:16.995Z,100188.00
2022-10-11T23:58:44.799Z,100185.20
